Time;durP1;ratioP1;P1;durP2;ratioP2;P2;SDS_P1;SDS_P2;PMS_P1;PMS_P2;Temp;Humidity;BMP_temperature;BMP_pressure;BME280_temperature;BME280_humidity;BME280_pressure;Samples;Min_cycle;Max_cycle;Signal;HPM_P1;HPM_P2
2022/04/20 00:01:37;;;;;;;2.88;1.60;;;;;;;18.61;20.91;101127.09;5006676;28;20448;-82
2022/04/20 00:04:04;;;;;;;2.58;1.50;;;;;;;18.59;20.45;101133.78;5004714;28;20057;-82
2022/04/20 00:06:31;;;;;;;2.75;1.50;;;;;;;18.58;20.56;101130.16;5003181;28;20136;-81
2022/04/20 00:09:01;;;;;;;2.53;1.45;;;;;;;18.57;21.08;101136.66;5025335;28;20045;-82
2022/04/20 00:11:28;;;;;;;3.00;1.70;;;;;;;18.52;20.68;101133.47;5008317;28;20108;-82
2022/04/20 00:13:54;;;;;;;2.58;1.38;;;;;;;18.50;20.71;101124.50;5012653;28;20279;-81
2022/04/20 00:16:21;;;;;;;2.20;1.38;;;;;;;18.47;20.96;101130.28;5013722;28;20625;-82
2022/04/20 00:18:47;;;;;;;2.70;1.70;;;;;;;18.45;20.78;101134.19;5010426;28;20162;-82
2022/04/20 00:21:14;;;;;;;4.95;1.70;;;;;;;18.41;21.05;101128.13;5019133;28;20049;-80
2022/04/20 00:23:41;;;;;;;2.53;1.50;;;;;;;18.38;20.80;101130.28;5011099;28;20058;-82
2022/04/20 00:26:07;;;;;;;3.47;1.80;;;;;;;18.35;21.11;101127.84;5002927;28;20057;-81
2022/04/20 00:28:34;;;;;;;2.42;1.40;;;;;;;18.31;21.05;101127.25;5011576;28;20093;-82
2022/04/20 00:31:01;;;;;;;2.15;1.38;;;;;;;18.27;21.21;101133.19;5010202;28;20536;-82
2022/04/20 00:33:28;;;;;;;3.05;1.70;;;;;;;18.24;21.26;101132.47;5013294;28;20042;-81
2022/04/20 00:35:54;;;;;;;3.38;1.58;;;;;;;18.21;21.09;101129.13;5006048;28;20051;-82
2022/04/20 00:38:21;;;;;;;3.25;1.60;;;;;;;18.17;21.08;101131.31;5014582;28;20074;-81
2022/04/20 00:40:48;;;;;;;2.95;1.60;;;;;;;18.15;21.36;101124.22;5012863;28;20141;-81
2022/04/20 00:43:15;;;;;;;3.72;1.50;;;;;;;18.11;21.29;101125.53;5016022;28;20046;-81
2022/04/20 00:45:42;;;;;;;2.55;1.60;;;;;;;18.08;21.12;101132.19;5014289;28;20050;-82
2022/04/20 00:48:12;;;;;;;3.17;1.55;;;;;;;18.08;21.43;101125.81;5016384;28;20131;-81
2022/04/20 00:50:40;;;;;;;3.15;1.63;;;;;;;18.05;21.39;101134.34;5005724;28;20096;-82
2022/04/20 00:53:07;;;;;;;2.45;1.45;;;;;;;18.01;21.29;101125.53;5009793;28;20081;-82
2022/04/20 00:55:33;;;;;;;3.03;1.70;;;;;;;18.00;21.51;101128.41;5010185;28;20359;-83
2022/04/20 00:58:00;;;;;;;2.55;1.40;;;;;;;17.97;21.57;101131.44;5012543;28;20104;-82
2022/04/20 01:00:29;;;;;;;3.90;1.80;;;;;;;17.94;21.50;101129.00;5012758;28;20409;-82
2022/04/20 01:02:59;;;;;;;2.60;1.58;;;;;;;17.93;22.03;101128.13;5003406;28;20054;-81
2022/04/20 01:05:25;;;;;;;3.83;1.60;;;;;;;17.86;21.70;101133.34;5003554;28;20049;-82
2022/04/20 01:07:52;;;;;;;2.50;1.67;;;;;;;17.84;21.56;101129.00;5012301;28;20085;-82
2022/04/20 01:10:19;;;;;;;2.85;1.55;;;;;;;17.80;21.66;101133.88;5011257;28;20061;-81
2022/04/20 01:12:46;;;;;;;3.15;1.92;;;;;;;17.79;21.78;101134.03;5011827;28;20085;-82
2022/04/20 01:15:13;;;;;;;2.70;1.70;;;;;;;17.75;21.88;101132.59;5009261;28;20089;-82
2022/04/20 01:17:39;;;;;;;2.70;1.70;;;;;;;17.71;22.08;101131.97;5012995;28;20129;-82
2022/04/20 01:20:13;;;;;;;2.83;1.77;;;;;;;17.72;22.04;101135.59;5014595;28;20129;-82
2022/04/20 01:22:43;;;;;;;3.15;1.63;;;;;;;17.66;22.32;101133.44;5011671;28;20050;-82
2022/04/20 01:25:10;;;;;;;3.28;1.90;;;;;;;17.61;22.44;101128.34;5013081;28;20108;-83
2022/04/20 01:27:39;;;;;;;3.38;1.90;;;;;;;17.61;22.18;101136.56;5017067;28;20141;-80
2022/04/20 01:30:07;;;;;;;2.85;1.65;;;;;;;17.55;22.10;101137.13;5015232;28;20131;-81
2022/04/20 01:32:33;;;;;;;3.17;1.60;;;;;;;17.51;22.15;101132.94;5012196;28;20065;-82
2022/04/20 01:35:00;;;;;;;2.75;1.70;;;;;;;17.47;22.15;101134.19;5014324;28;20053;-82
2022/04/20 01:37:28;;;;;;;3.90;1.75;;;;;;;17.43;22.44;101132.75;5012694;28;20100;-82
2022/04/20 01:39:56;;;;;;;4.38;1.73;;;;;;;17.41;22.36;101134.78;5020269;28;20046;-82
2022/04/20 01:42:22;;;;;;;3.38;1.90;;;;;;;17.36;22.53;101135.22;5015391;28;20350;-81
2022/04/20 01:44:49;;;;;;;4.13;2.10;;;;;;;17.33;22.61;101131.84;5013560;28;20069;-81
2022/04/20 01:47:16;;;;;;;3.22;1.80;;;;;;;17.29;22.84;101127.66;5012635;28;20128;-82
2022/04/20 01:49:42;;;;;;;3.33;1.90;;;;;;;17.26;22.60;101130.69;5013716;28;20065;-81
2022/04/20 01:52:09;;;;;;;5.25;1.95;;;;;;;17.23;22.63;101125.47;5013196;28;20150;-81
2022/04/20 01:54:36;;;;;;;3.20;1.90;;;;;;;17.19;22.59;101126.75;5014198;28;20116;-81
2022/04/20 01:57:03;;;;;;;3.80;1.65;;;;;;;17.15;22.72;101126.16;5015502;28;20548;-81
2022/04/20 01:59:29;;;;;;;3.42;2.08;;;;;;;17.12;22.97;101137.44;5013106;28;20104;-82
2022/04/20 02:04:48;;;;;;;3.10;1.88;;;;;;;17.05;23.31;101134.34;5011582;28;20060;-81
2022/04/20 02:07:14;;;;;;;3.08;1.75;;;;;;;17.02;22.83;101142.00;5002638;28;20108;-81
2022/04/20 02:09:41;;;;;;;2.90;1.77;;;;;;;16.99;22.97;101134.03;5011480;28;20077;-81
2022/04/20 02:12:08;;;;;;;3.15;1.85;;;;;;;16.98;23.16;101133.16;5015374;28;20489;-81
2022/04/20 02:14:35;;;;;;;3.95;2.10;;;;;;;16.96;23.29;101131.56;5020439;28;20169;-81
2022/04/20 02:17:01;;;;;;;3.72;2.00;;;;;;;16.94;23.23;101128.09;5014762;28;20089;-81
2022/04/20 02:19:28;;;;;;;3.80;2.15;;;;;;;16.92;22.91;101127.34;5015347;28;20572;-81
2022/04/20 02:21:55;;;;;;;4.65;2.45;;;;;;;16.88;22.93;101126.78;5014545;28;20046;-82
2022/04/20 02:24:21;;;;;;;3.47;2.10;;;;;;;16.88;23.57;101131.38;5013424;28;20141;-81
2022/04/20 02:26:48;;;;;;;4.88;2.47;;;;;;;16.84;23.39;101133.53;5013072;28;20153;-81
2022/04/20 02:29:14;;;;;;;4.38;2.60;;;;;;;16.82;23.57;101130.03;5023362;28;20539;-82
2022/04/20 02:31:41;;;;;;;3.97;2.40;;;;;;;16.82;23.46;101131.91;5015553;28;20081;-81
2022/04/20 02:34:08;;;;;;;4.93;2.40;;;;;;;16.79;23.19;101133.06;5014210;28;20088;-81
2022/04/20 02:36:35;;;;;;;3.78;2.17;;;;;;;16.78;23.63;101130.47;5007362;28;20131;-81
2022/04/20 02:39:05;;;;;;;4.57;2.38;;;;;;;16.77;23.27;101132.31;5014227;28;20137;-81
2022/04/20 02:41:35;;;;;;;3.90;2.05;;;;;;;16.76;23.66;101136.06;5007726;28;20125;-82
2022/04/20 02:44:03;;;;;;;4.05;2.10;;;;;;;16.75;23.44;101137.06;5010311;28;20092;-81
2022/04/20 02:46:30;;;;;;;3.10;1.98;;;;;;;16.73;23.68;101142.69;5009219;28;20083;-81
2022/04/20 02:48:57;;;;;;;3.95;2.28;;;;;;;16.71;23.28;101136.50;5011994;28;20077;-81
2022/04/20 02:51:23;;;;;;;3.15;2.10;;;;;;;16.69;23.36;101135.75;5014364;28;20046;-81
2022/04/20 02:53:50;;;;;;;3.38;2.00;;;;;;;16.67;23.29;101131.41;5004198;28;20524;-81
2022/04/20 02:56:21;;;;;;;4.68;2.03;;;;;;;16.69;23.49;101137.63;5013916;28;20548;-82
2022/04/20 02:58:48;;;;;;;3.40;2.00;;;;;;;16.62;23.23;101137.28;5012912;28;20114;-82
2022/04/20 03:01:18;;;;;;;3.47;2.20;;;;;;;16.64;23.74;101142.63;5013412;28;20104;-82
2022/04/20 03:03:45;;;;;;;3.67;2.03;;;;;;;16.59;23.49;101140.25;5008351;28;20284;-82
2022/04/20 03:06:15;;;;;;;3.30;1.83;;;;;;;16.60;23.69;101136.53;5003808;28;20540;-81
2022/04/20 03:08:41;;;;;;;3.00;1.83;;;;;;;16.56;23.39;101135.03;5013874;28;20049;-82
2022/04/20 03:11:08;;;;;;;2.78;1.85;;;;;;;16.55;23.73;101132.44;5008619;28;20525;-82
2022/04/20 03:13:35;;;;;;;3.72;1.70;;;;;;;16.56;23.43;101145.13;5010376;28;20412;-82
2022/04/20 03:16:01;;;;;;;2.78;1.67;;;;;;;16.55;23.43;101154.38;5026724;28;20045;-82
2022/04/20 03:18:32;;;;;;;4.00;2.15;;;;;;;16.53;23.67;101150.91;5009465;28;20136;-81
2022/04/20 03:21:02;;;;;;;3.55;2.00;;;;;;;16.56;23.80;101156.97;5005922;28;20053;-81
2022/04/20 03:23:29;;;;;;;4.55;2.08;;;;;;;16.52;23.57;101158.25;5013455;28;20105;-81
2022/04/20 03:25:56;;;;;;;3.97;2.10;;;;;;;16.51;23.65;101152.91;5013336;28;20452;-81
2022/04/20 03:28:23;;;;;;;3.10;1.90;;;;;;;16.51;23.75;101140.06;5008813;28;20050;-81
2022/04/20 03:30:50;;;;;;;3.40;2.35;;;;;;;16.51;23.60;101155.63;5012677;28;20153;-81
2022/04/20 03:33:17;;;;;;;3.13;1.85;;;;;;;16.51;23.43;101150.16;5011687;28;20448;-81
2022/04/20 03:35:44;;;;;;;4.03;2.10;;;;;;;16.49;23.93;101153.03;5012696;28;20073;-81
2022/04/20 03:38:11;;;;;;;4.45;2.20;;;;;;;16.48;23.56;101148.53;5012267;28;20092;-81
2022/04/20 03:40:37;;;;;;;3.72;2.15;;;;;;;16.47;23.76;101148.69;5000272;28;20141;-82
2022/04/20 03:43:04;;;;;;;3.47;2.17;;;;;;;16.46;23.52;101147.81;5012601;28;20077;-81
2022/04/20 03:45:30;;;;;;;3.90;2.17;;;;;;;16.44;23.57;101158.03;5011273;28;20713;-82
2022/04/20 03:47:57;;;;;;;3.38;2.10;;;;;;;16.44;23.60;101152.56;5011678;28;20409;-82
2022/04/20 03:50:24;;;;;;;4.15;2.30;;;;;;;16.43;23.68;101153.56;5012963;28;20070;-82
2022/04/20 03:52:51;;;;;;;4.25;2.13;;;;;;;16.42;23.55;101157.31;5011535;28;20054;-82
2022/04/20 03:55:17;;;;;;;4.45;2.20;;;;;;;16.40;23.79;101156.56;5006603;28;20113;-82
2022/04/20 03:57:44;;;;;;;3.85;2.28;;;;;;;16.39;23.64;101156.72;5012816;28;20088;-82
2022/04/20 04:00:12;;;;;;;7.93;2.33;;;;;;;16.39;23.80;101154.81;5010727;28;20085;-82
2022/04/20 04:02:40;;;;;;;3.40;2.00;;;;;;;16.39;23.88;101164.94;5009640;28;20085;-82
2022/04/20 04:05:06;;;;;;;3.30;2.00;;;;;;;16.36;23.76;101164.19;5005109;28;20054;-82
2022/04/20 04:07:37;;;;;;;5.43;1.98;;;;;;;16.35;23.75;101158.84;5007953;28;20042;-82
2022/04/20 04:10:06;;;;;;;3.80;2.20;;;;;;;16.34;23.96;101174.41;5010863;28;20119;-81
2022/04/20 04:12:33;;;;;;;3.63;2.13;;;;;;;16.31;23.86;101177.41;5013476;28;20049;-82
2022/04/20 04:15:00;;;;;;;4.22;2.25;;;;;;;16.32;24.00;101178.28;5010171;28;20085;-82
2022/04/20 04:17:27;;;;;;;4.55;2.10;;;;;;;16.29;23.94;101173.94;5012331;28;20074;-82
2022/04/20 04:19:53;;;;;;;3.90;1.80;;;;;;;16.27;24.08;101175.94;5012609;28;20049;-82
2022/04/20 04:22:21;;;;;;;3.00;1.88;;;;;;;16.26;23.81;101176.94;5012402;28;20448;-82
2022/04/20 04:24:48;;;;;;;3.63;1.90;;;;;;;16.26;24.17;101187.91;5011103;28;20084;-82
2022/04/20 04:27:15;;;;;;;4.03;2.10;;;;;;;16.24;23.94;101184.41;5012702;28;20076;-82
2022/04/20 04:29:41;;;;;;;3.35;1.80;;;;;;;16.23;24.08;101182.66;5012062;28;20058;-82
2022/04/20 04:32:08;;;;;;;4.35;2.20;;;;;;;16.23;24.26;101181.78;5010668;28;20124;-82
2022/04/20 04:34:35;;;;;;;2.95;1.90;;;;;;;16.21;23.89;101181.94;5010972;28;20054;-81
2022/04/20 04:37:02;;;;;;;4.45;1.90;;;;;;;16.19;24.09;101189.41;5000574;28;20486;-81
2022/04/20 04:39:28;;;;;;;2.75;1.92;;;;;;;16.20;24.33;101187.56;5007367;28;20050;-80
2022/04/20 04:42:02;;;;;;;5.18;2.22;;;;;;;16.19;24.17;101185.81;5012177;28;20053;-80
2022/04/20 04:44:32;;;;;;;4.28;2.30;;;;;;;16.17;24.10;101187.81;5010531;28;20432;-79
2022/04/20 04:49:43;;;;;;;3.50;2.17;;;;;;;16.12;24.34;101190.06;5012461;28;20045;-80
2022/04/20 04:52:13;;;;;;;3.78;1.98;;;;;;;16.12;24.32;101187.34;5012816;28;20517;-79
2022/04/20 04:54:40;;;;;;;3.85;1.88;;;;;;;16.11;24.67;101189.22;5011680;28;20457;-79
2022/04/20 04:57:08;;;;;;;3.30;1.90;;;;;;;16.11;24.31;101191.06;5010015;28;20046;-82
2022/04/20 04:59:36;;;;;;;3.80;2.00;;;;;;;16.09;24.42;101198.53;5011033;28;20081;-82
2022/04/20 05:02:04;;;;;;;4.35;2.25;;;;;;;16.08;24.24;101199.53;5012881;28;20042;-84
2022/04/20 05:04:31;;;;;;;4.18;1.80;;;;;;;16.06;24.83;101191.44;5006876;28;20060;-81
2022/04/20 05:07:01;;;;;;;3.90;2.30;;;;;;;16.08;24.76;101197.66;5004005;28;20129;-85
2022/04/20 05:09:28;;;;;;;4.15;2.40;;;;;;;16.05;24.60;101194.34;5011253;28;20650;-84
2022/04/20 05:11:54;;;;;;;4.75;2.63;;;;;;;16.05;24.46;101202.56;5013447;28;20570;-84
2022/04/20 05:14:21;;;;;;;4.50;2.13;;;;;;;16.05;24.73;101197.06;5011126;28;20042;-84
2022/04/20 05:16:47;;;;;;;4.82;2.20;;;;;;;16.04;24.70;101198.94;5008417;28;20165;-83
2022/04/20 05:19:14;;;;;;;4.20;2.20;;;;;;;16.04;24.50;101198.94;5011916;28;20131;-81
2022/04/20 05:21:41;;;;;;;4.18;2.33;;;;;;;16.05;24.76;101208.91;5004573;28;20054;-84
2022/04/20 05:24:08;;;;;;;3.72;2.17;;;;;;;16.06;24.90;101198.81;5022863;28;20077;-81
2022/04/20 05:26:35;;;;;;;4.55;2.17;;;;;;;16.08;24.88;101199.53;5016128;28;20121;-83
2022/04/20 05:29:01;;;;;;;3.80;2.20;;;;;;;16.09;24.97;101201.28;5006668;28;20513;-83
2022/04/20 05:31:28;;;;;;;4.40;2.35;;;;;;;16.11;25.07;101205.63;5006798;28;20085;-82
2022/04/20 05:33:54;;;;;;;5.70;2.38;;;;;;;16.13;24.77;101209.13;5000725;28;20064;-80
2022/04/20 05:36:21;;;;;;;4.18;2.17;;;;;;;16.16;25.06;101210.72;5007516;28;20149;-81
2022/04/20 05:41:42;;;;;;;3.72;2.10;;;;;;;16.19;25.19;101205.00;5007435;28;20527;-81
2022/04/20 05:44:10;;;;;;;5.32;2.08;;;;;;;16.24;25.08;101205.47;5015194;28;20049;-81
2022/04/20 05:46:39;;;;;;;4.03;2.15;;;;;;;16.26;25.17;101206.19;5012265;28;20042;-81
2022/04/20 05:49:06;;;;;;;5.25;2.33;;;;;;;16.29;25.06;101198.59;5018311;28;20069;-83
2022/04/20 05:51:33;;;;;;;4.57;2.33;;;;;;;16.32;25.02;101203.81;5013673;28;20062;-86
2022/04/20 05:54:00;;;;;;;3.72;2.22;;;;;;;16.36;25.19;101201.69;5008623;28;20072;-83
2022/04/20 05:56:26;;;;;;;4.22;2.03;;;;;;;16.41;25.14;101204.00;5009625;28;20050;-83
2022/04/20 05:58:53;;;;;;;3.70;1.85;;;;;;;16.43;25.10;101205.63;5010664;28;20092;-79
2022/04/20 06:01:26;;;;;;;3.72;1.70;;;;;;;16.50;25.14;101193.13;5007198;28;20210;-81
2022/04/20 06:03:52;;;;;;;;;;;;;;;16.26;25.27;101200.72;5008119;28;20978;-78
2022/04/20 06:06:19;;;;;;;3.45;1.85;;;;;;;16.50;24.74;101195.00;5005045;28;19921;-79
2022/04/20 06:08:47;;;;;;;4.43;1.80;;;;;;;16.58;25.04;101198.81;5002804;28;20049;-80
2022/04/20 06:11:14;;;;;;;3.08;1.83;;;;;;;16.62;24.99;101200.34;5009560;28;20048;-80
2022/04/20 06:13:40;;;;;;;3.00;1.80;;;;;;;16.65;24.92;101200.06;5011639;28;20049;-80
2022/04/20 06:16:08;;;;;;;3.60;1.60;;;;;;;16.70;24.84;101199.69;5008281;28;20116;-80
2022/04/20 06:18:34;;;;;;;3.28;1.80;;;;;;;16.73;25.13;101207.63;5006100;28;20046;-79
2022/04/20 06:21:02;;;;;;;3.00;1.65;;;;;;;16.78;25.04;101212.72;5009867;28;20053;-79
2022/04/20 06:23:29;;;;;;;2.88;1.75;;;;;;;16.81;25.00;101212.44;5002295;28;20046;-77
2022/04/20 06:25:56;;;;;;;3.72;1.92;;;;;;;16.86;25.02;101210.19;5003337;28;20516;-78
2022/04/20 06:28:25;;;;;;;3.90;2.00;;;;;;;16.92;24.95;101220.59;5005811;28;20086;-79
2022/04/20 06:30:53;;;;;;;3.40;1.83;;;;;;;16.95;24.82;101228.56;5009511;28;20128;-80
2022/04/20 06:33:23;;;;;;;3.10;1.90;;;;;;;16.98;24.91;101217.31;5010768;28;20421;-82
2022/04/20 06:35:51;;;;;;;3.13;1.80;;;;;;;17.01;24.95;101223.41;5009176;28;20050;-79
2022/04/20 06:38:17;;;;;;;3.28;1.80;;;;;;;17.05;24.89;101213.88;5007438;28;20053;-80
2022/04/20 06:40:44;;;;;;;3.70;1.75;;;;;;;17.09;24.73;101223.59;5010038;28;20111;-78
2022/04/20 06:43:10;;;;;;;3.22;1.60;;;;;;;17.13;24.89;101222.31;5005303;28;20137;-78
2022/04/20 06:45:37;;;;;;;3.70;1.88;;;;;;;17.19;24.80;101220.06;5006888;28;20132;-78
2022/04/20 06:48:05;;;;;;;4.10;1.88;;;;;;;17.25;24.83;101231.34;5012037;28;20096;-80
2022/04/20 06:50:31;;;;;;;2.75;1.50;;;;;;;17.29;24.82;101231.97;5007226;28;20049;-79
2022/04/20 06:58:38;;;;;;;3.38;1.60;;;;;;;17.50;24.47;101211.69;5006128;28;20508;-79
2022/04/20 07:01:07;;;;;;;3.70;1.65;;;;;;;17.63;24.54;101224.31;5005525;28;20054;-77
2022/04/20 07:03:35;;;;;;;3.38;1.60;;;;;;;17.75;24.13;101214.97;5004642;28;20065;-78
2022/04/20 07:06:03;;;;;;;3.30;1.98;;;;;;;17.89;23.96;101222.81;5012990;28;20255;-79
2022/04/20 07:08:31;;;;;;;3.03;1.73;;;;;;;18.01;23.92;101218.94;5008614;28;20046;-78
2022/04/20 07:10:58;;;;;;;3.13;1.45;;;;;;;18.14;24.41;101225.03;4996373;28;20182;-79
2022/04/20 07:13:25;;;;;;;3.15;1.60;;;;;;;18.29;23.79;101224.59;5007219;28;20048;-78
2022/04/20 07:15:52;;;;;;;2.38;1.35;;;;;;;18.43;23.93;101225.09;5006419;28;20479;-79
2022/04/20 07:18:19;;;;;;;3.45;1.63;;;;;;;18.58;23.38;101220.91;5006331;28;20172;-79
2022/04/20 07:20:45;;;;;;;2.75;1.50;;;;;;;18.73;23.27;101218.56;5005870;28;20053;-78
2022/04/20 07:23:12;;;;;;;1.92;1.30;;;;;;;18.89;23.29;101220.72;5009918;28;20058;-78
2022/04/20 07:25:39;;;;;;;2.97;1.50;;;;;;;19.02;23.11;101222.13;5004933;28;20112;-79
2022/04/20 07:28:06;;;;;;;2.88;1.70;;;;;;;19.19;22.69;101215.00;5009791;28;20120;-78
2022/04/20 07:30:36;;;;;;;2.30;1.35;;;;;;;19.34;22.29;101216.28;5009002;28;20119;-78
2022/04/20 07:33:04;;;;;;;3.38;1.55;;;;;;;19.45;22.33;101215.22;5006923;28;20050;-80
2022/04/20 07:35:31;;;;;;;1.88;1.30;;;;;;;19.59;22.31;101223.03;5005801;28;20140;-79
2022/04/20 07:38:00;;;;;;;3.05;1.80;;;;;;;19.73;22.01;101224.41;5006659;28;20560;-79
2022/04/20 07:40:27;;;;;;;2.42;1.60;;;;;;;19.86;22.16;101222.16;5003944;28;20053;-81
2022/04/20 07:42:54;;;;;;;3.33;1.80;;;;;;;20.00;22.12;101229.91;5010710;28;20133;-81
2022/04/20 07:45:25;;;;;;;3.08;1.50;;;;;;;20.13;21.54;101226.78;5005793;28;20069;-80
2022/04/20 07:47:54;;;;;;;2.92;1.50;;;;;;;20.25;21.63;101232.94;5007079;28;20416;-82
2022/04/20 07:50:23;;;;;;;2.20;1.30;;;;;;;20.35;21.25;101229.13;5005952;28;20117;-80
2022/04/20 07:52:56;;;;;;;3.13;1.50;;;;;;;20.47;21.00;101230.63;5014262;28;20115;-79
2022/04/20 07:55:27;;;;;;;2.22;1.42;;;;;;;20.57;21.08;101240.72;5006592;28;20516;-80
2022/04/20 07:57:59;;;;;;;2.80;1.50;;;;;;;20.67;21.30;101231.31;5012455;28;20087;-78
2022/04/20 08:00:26;;;;;;;2.92;1.48;;;;;;;20.75;21.25;101234.19;5009040;28;20159;-80
2022/04/20 08:03:16;;;;;;;3.40;1.40;;;;;;;20.89;20.32;101235.50;5012985;28;20046;-80
2022/04/20 08:05:50;;;;;;;3.92;1.50;;;;;;;21.00;20.65;101226.09;5006421;28;20042;-80
2022/04/20 08:08:17;;;;;;;2.78;1.50;;;;;;;21.10;20.61;101237.88;5018620;28;20046;-80
2022/04/20 08:10:44;;;;;;;4.80;1.50;;;;;;;21.18;20.42;101230.56;5024562;28;20066;-77
2022/04/20 08:15:57;;;;;;;3.33;1.70;;;;;;;21.33;20.25;101235.50;5003731;28;20093;-78
2022/04/20 08:18:25;;;;;;;3.53;1.48;;;;;;;21.38;20.13;101233.13;5011740;28;20068;-77
2022/04/20 08:20:52;;;;;;;3.75;1.70;;;;;;;21.43;19.76;101236.25;5008195;28;20096;-77
2022/04/20 08:23:21;;;;;;;3.47;1.50;;;;;;;21.48;19.51;101236.63;5009316;28;20459;-77
2022/04/20 08:25:47;;;;;;;2.58;1.48;;;;;;;21.52;19.64;101241.66;5008508;28;20053;-77
2022/04/20 08:28:14;;;;;;;2.70;1.60;;;;;;;21.58;19.73;101238.22;5006246;28;20104;-78
2022/04/20 08:30:40;;;;;;;2.20;1.52;;;;;;;21.66;19.80;101242.09;5001095;28;20046;-77
2022/04/20 08:33:08;;;;;;;3.47;1.42;;;;;;;21.72;19.47;101238.66;5009431;28;20049;-77
2022/04/20 08:35:36;;;;;;;2.15;1.25;;;;;;;21.80;19.79;101241.47;5008512;28;20120;-77
2022/04/20 08:38:05;;;;;;;2.25;1.23;;;;;;;21.88;19.08;101239.59;5007609;28;20186;-76
2022/04/20 08:40:33;;;;;;;2.75;1.38;;;;;;;21.94;19.77;101233.41;5002829;28;20049;-79
2022/04/20 08:43:03;;;;;;;3.92;1.70;;;;;;;22.02;19.77;101241.75;5010232;28;20065;-82
2022/04/20 08:45:32;;;;;;;3.45;1.42;;;;;;;22.10;19.48;101232.63;5001601;28;20050;-78
2022/04/20 08:47:59;;;;;;;3.08;1.55;;;;;;;22.18;19.29;101232.63;5002765;28;20129;-79
2022/04/20 08:50:26;;;;;;;2.53;1.27;;;;;;;22.26;19.48;101235.44;5005686;28;20465;-80
2022/04/20 08:52:55;;;;;;;2.28;1.42;;;;;;;22.35;19.30;101234.41;5006401;28;20145;-81
2022/04/20 08:55:22;;;;;;;2.67;1.48;;;;;;;22.43;19.47;101228.03;5003908;28;20069;-81
2022/04/20 08:57:52;;;;;;;2.63;1.30;;;;;;;22.51;19.28;101221.63;4999210;28;20049;-81
2022/04/20 09:00:23;;;;;;;2.33;1.45;;;;;;;22.59;18.72;101219.75;5002232;28;20049;-80
2022/04/20 09:02:58;;;;;;;2.22;1.33;;;;;;;22.65;18.65;101215.41;5010039;28;20049;-80
2022/04/20 09:05:30;;;;;;;3.60;1.70;;;;;;;22.71;18.63;101223.06;5003958;28;20073;-81
2022/04/20 09:07:57;;;;;;;2.57;1.40;;;;;;;22.73;19.08;101221.00;5008729;28;20140;-81
2022/04/20 09:10:24;;;;;;;2.17;1.23;;;;;;;22.79;18.71;101216.69;5008368;28;20363;-80
2022/04/20 09:13:04;;;;;;;3.28;1.80;;;;;;;22.86;18.44;101224.13;5024643;28;20057;-80
2022/04/20 09:15:32;;;;;;;2.28;1.38;;;;;;;22.86;18.58;101226.91;5005588;28;20053;-80
2022/04/20 09:18:03;;;;;;;2.50;1.38;;;;;;;22.89;18.19;101221.03;5009509;28;20471;-80
2022/04/20 09:20:35;;;;;;;3.20;1.50;;;;;;;22.91;18.24;101216.16;5009489;28;20061;-80
2022/04/20 09:23:07;;;;;;;2.38;1.65;;;;;;;22.96;18.42;101210.97;5010606;28;20131;-81
2022/04/20 09:25:45;;;;;;;2.47;1.50;;;;;;;22.97;18.29;101209.06;5006652;28;20061;-81
2022/04/20 09:28:12;;;;;;;2.58;1.60;;;;;;;23.00;18.41;101195.72;5010029;28;20050;-80
2022/04/20 09:30:41;;;;;;;2.00;1.30;;;;;;;23.06;18.73;101202.50;5009317;28;20057;-81
2022/04/20 09:33:10;;;;;;;2.55;1.35;;;;;;;23.11;18.34;101206.44;5008632;28;20054;-81
2022/04/20 09:35:45;;;;;;;2.47;1.42;;;;;;;23.19;18.19;101201.94;5009365;28;20081;-80
2022/04/20 09:38:13;;;;;;;2.92;1.40;;;;;;;23.21;18.20;101186.88;5009979;28;20046;-81
2022/04/20 09:40:40;;;;;;;2.67;1.50;;;;;;;23.26;18.65;101191.88;5010575;28;20061;-81
2022/04/20 09:43:19;;;;;;;4.38;1.60;;;;;;;23.35;17.33;101182.50;5015587;28;20052;-81
2022/04/20 09:49:08;;;;;;;2.88;1.30;;;;;;;23.44;17.73;101185.06;5013590;28;20062;-81
2022/04/20 09:51:41;;;;;;;3.92;1.33;;;;;;;23.49;17.49;101181.78;5014094;28;20108;-81
2022/04/20 09:54:28;;;;;;;2.55;1.45;;;;;;;23.49;17.32;101182.66;5031029;28;20497;-81
2022/04/20 09:57:10;;;;;;;2.55;1.45;;;;;;;23.53;17.32;101180.41;5015625;28;20062;-81
2022/04/20 09:59:53;;;;;;;2.83;1.77;;;;;;;23.55;17.41;101177.47;5004724;28;20499;-81
2022/04/20 10:02:43;;;;;;;2.22;1.30;;;;;;;23.59;17.52;101163.06;5018752;28;20050;-81
2022/04/20 10:05:10;;;;;;;2.28;1.42;;;;;;;23.61;18.16;101165.66;5013196;28;20524;-80
2022/04/20 10:07:37;;;;;;;3.45;1.80;;;;;;;23.65;17.68;101167.00;5013918;28;20042;-80
2022/04/20 10:10:04;;;;;;;3.20;1.70;;;;;;;23.71;17.64;101160.75;4999549;28;20085;-80
2022/04/20 10:12:31;;;;;;;3.28;1.80;;;;;;;23.74;17.15;101154.84;4998696;28;20054;-79
2022/04/20 10:17:50;;;;;;;2.92;1.60;;;;;;;23.82;17.26;101139.03;5012868;28;20132;-80
2022/04/20 10:20:19;;;;;;;5.20;1.50;;;;;;;23.87;17.53;101135.72;5015726;28;20045;-78
2022/04/20 10:22:47;;;;;;;4.47;1.60;;;;;;;23.90;17.43;101143.66;5003119;28;20069;-80
2022/04/20 10:25:14;;;;;;;4.00;1.55;;;;;;;23.92;17.42;101136.03;5009625;28;20167;-79
2022/04/20 10:28:17;;;;;;;2.70;1.50;;;;;;;23.95;17.23;101140.34;5010424;28;20073;-80
2022/04/20 10:31:11;;;;;;;2.47;1.58;;;;;;;23.99;17.08;101127.81;5002101;28;20394;-80
2022/04/20 10:33:41;;;;;;;2.75;1.40;;;;;;;24.02;16.90;101130.25;5009988;28;20493;-80
2022/04/20 10:36:15;;;;;;;3.17;1.95;;;;;;;24.03;16.74;101132.84;5011015;28;20069;-80
2022/04/20 10:38:45;;;;;;;2.85;1.60;;;;;;;24.03;16.68;101130.06;5010349;28;20050;-80
2022/04/20 10:41:14;;;;;;;3.53;1.92;;;;;;;24.01;17.11;101120.19;5012272;28;20081;-80
2022/04/20 10:43:44;;;;;;;3.35;1.95;;;;;;;24.01;17.05;101131.28;5010132;28;20050;-79
2022/04/20 10:46:16;;;;;;;2.38;1.65;;;;;;;24.03;16.35;101123.66;5011395;28;20489;-79
2022/04/20 10:48:52;;;;;;;2.83;1.75;;;;;;;24.03;16.62;101120.88;5012172;28;20046;-79
2022/04/20 10:51:22;;;;;;;3.03;1.60;;;;;;;24.02;16.75;101117.25;5012875;28;20112;-80
2022/04/20 10:53:51;;;;;;;2.90;1.67;;;;;;;24.04;16.87;101117.06;5010326;28;20123;-79
2022/04/20 10:56:20;;;;;;;3.38;1.85;;;;;;;24.04;16.98;101105.97;5011233;28;20054;-80
2022/04/20 10:59:07;;;;;;;3.47;1.70;;;;;;;24.07;16.39;101102.81;5012782;28;20070;-79
2022/04/20 11:02:12;;;;;;;3.75;1.77;;;;;;;23.96;16.68;101106.91;5001691;28;20050;-80
2022/04/20 11:04:39;;;;;;;2.53;1.58;;;;;;;24.05;17.15;101097.44;5013040;28;20128;-80
2022/04/20 11:07:07;;;;;;;3.15;1.80;;;;;;;24.07;16.51;101098.13;5006109;28;20054;-80
2022/04/20 11:09:43;;;;;;;3.78;1.85;;;;;;;24.12;16.36;101094.81;4987620;28;20413;-80
2022/04/20 11:21:06;;;;;;;3.03;1.80;;;;;;;23.97;16.24;101091.94;4997625;28;20123;-79
2022/04/20 11:23:48;;;;;;;2.78;1.70;;;;;;;23.98;17.33;101090.03;5003192;28;20058;-82
2022/04/20 11:26:22;;;;;;;3.67;1.60;;;;;;;23.99;17.29;101083.44;5000742;28;20460;-79
2022/04/20 11:28:49;;;;;;;3.40;1.65;;;;;;;24.00;17.43;101071.31;5012785;28;20073;-79
2022/04/20 11:31:16;;;;;;;3.25;1.80;;;;;;;24.04;17.02;101078.22;5013169;28;20513;-79
2022/04/20 11:33:43;;;;;;;3.30;1.80;;;;;;;24.07;17.57;101080.63;4984545;28;20061;-79
2022/04/20 11:36:12;;;;;;;3.15;1.77;;;;;;;24.13;17.67;101077.97;4999702;28;20141;-77
2022/04/20 11:38:41;;;;;;;3.40;2.13;;;;;;;24.13;17.32;101075.19;5009593;28;20478;-77
2022/04/20 11:41:11;;;;;;;2.75;1.77;;;;;;;24.17;17.23;101071.00;5010263;28;20060;-78
2022/04/20 11:43:39;;;;;;;2.67;1.65;;;;;;;24.20;16.93;101062.34;5007244;28;20053;-79
2022/04/20 11:46:07;;;;;;;2.80;1.73;;;;;;;24.23;16.77;101064.75;5007947;28;20057;-79
2022/04/20 11:48:35;;;;;;;3.83;2.00;;;;;;;24.27;17.16;101062.47;5008905;28;20528;-78
2022/04/20 11:51:07;;;;;;;3.65;1.80;;;;;;;24.29;16.91;101060.38;5005417;28;20100;-77
2022/04/20 11:53:40;;;;;;;3.38;1.90;;;;;;;24.35;16.76;101047.66;5003712;28;20141;-76
2022/04/20 11:56:09;;;;;;;4.15;1.85;;;;;;;24.34;16.99;101046.78;5005259;28;20109;-77
2022/04/20 11:58:49;;;;;;;3.92;1.75;;;;;;;24.40;16.61;101053.50;5007670;28;20077;-81
2022/04/20 12:01:16;;;;;;;4.03;1.80;;;;;;;24.40;16.82;101048.81;5009819;28;20555;-77
2022/04/20 12:03:45;;;;;;;3.88;1.80;;;;;;;24.43;17.04;101051.22;5008349;28;20057;-80